Time;durP1;ratioP1;P1;durP2;ratioP2;P2;SDS_P1;SDS_P2;PMS_P1;PMS_P2;Temp;Humidity;BMP_temperature;BMP_pressure;BME280_temperature;BME280_humidity;BME280_pressure;Samples;Min_cycle;Max_cycle;Signal;HPM_P1;HPM_P2
2023/08/16 00:01:00;;;;;;;1.25;0.70;;;18.50;64.80;;;;;;5074251;28;20024;-86
2023/08/16 00:03:25;;;;;;;3.28;1.15;;;18.50;64.90;;;;;;5080501;28;20039;-86
2023/08/16 00:05:52;;;;;;;3.22;1.55;;;18.40;64.80;;;;;;5079496;28;20590;-86
2023/08/16 00:08:18;;;;;;;2.10;1.30;;;18.40;64.90;;;;;;5085618;28;20020;-86
2023/08/16 00:10:44;;;;;;;2.75;1.58;;;18.40;65.00;;;;;;5068761;28;20043;-86
2023/08/16 00:13:10;;;;;;;1.98;1.08;;;18.30;64.90;;;;;;5085408;28;20290;-85
2023/08/16 00:15:36;;;;;;;4.65;1.70;;;18.30;65.00;;;;;;5077433;28;20111;-86
2023/08/16 00:18:03;;;;;;;2.72;1.10;;;18.30;65.10;;;;;;5081260;28;20044;-85
2023/08/16 00:20:28;;;;;;;3.00;1.20;;;18.30;65.10;;;;;;5093960;28;20044;-85
2023/08/16 00:22:54;;;;;;;2.10;1.45;;;18.20;65.00;;;;;;5081230;28;20288;-85
2023/08/16 00:25:20;;;;;;;2.42;1.50;;;18.20;65.10;;;;;;5093684;28;20042;-85
2023/08/16 00:27:48;;;;;;;1.20;1.00;;;18.10;65.00;;;;;;5088726;28;20473;-84
2023/08/16 00:30:14;;;;;;;3.22;1.50;;;18.10;65.10;;;;;;5091065;28;20035;-85
2023/08/16 00:32:41;;;;;;;1.40;1.08;;;18.00;65.00;;;;;;5089994;28;20027;-85
2023/08/16 00:35:07;;;;;;;2.17;1.30;;;18.00;65.00;;;;;;5063002;28;20024;-84
2023/08/16 00:37:33;;;;;;;1.42;1.10;;;18.00;65.60;;;;;;5081294;28;20055;-85
2023/08/16 00:40:00;;;;;;;1.45;1.15;;;18.00;65.20;;;;;;5079417;28;20107;-84
2023/08/16 00:42:26;;;;;;;1.38;0.98;;;17.90;65.10;;;;;;5088571;28;20028;-84
2023/08/16 00:44:53;;;;;;;0.80;0.70;;;17.90;65.20;;;;;;5076771;28;20033;-84
2023/08/16 00:47:19;;;;;;;2.10;1.15;;;17.80;65.10;;;;;;5080049;28;20206;-85
2023/08/16 00:49:45;;;;;;;0.98;0.80;;;17.80;65.10;;;;;;5067349;28;20044;-85
2023/08/16 00:52:11;;;;;;;1.50;1.13;;;17.80;65.10;;;;;;5090155;28;20043;-84
2023/08/16 00:54:38;;;;;;;1.63;0.93;;;17.70;64.90;;;;;;5088394;28;20030;-85
2023/08/16 00:57:04;;;;;;;1.08;0.70;;;17.70;64.90;;;;;;5098162;27;20055;-85
2023/08/16 00:59:30;;;;;;;1.75;0.90;;;17.70;64.90;;;;;;5081534;28;20039;-85
2023/08/16 01:01:56;;;;;;;1.00;0.90;;;17.60;64.80;;;;;;5081428;28;20039;-84
2023/08/16 01:04:22;;;;;;;1.25;1.05;;;17.60;64.90;;;;;;5081102;28;20027;-85
2023/08/16 01:06:49;;;;;;;1.27;0.80;;;17.60;65.00;;;;;;5086131;28;20036;-84
2023/08/16 01:09:15;;;;;;;3.20;1.00;;;17.50;64.80;;;;;;5081756;28;20023;-85
2023/08/16 01:11:43;;;;;;;0.95;0.90;;;17.50;64.80;;;;;;5081952;28;20424;-84
2023/08/16 01:14:55;;;;;;;1.02;0.90;;;17.40;64.80;;;;;;5065289;28;20039;-84
2023/08/16 01:17:25;;;;;;;1.13;0.65;;;17.40;64.90;;;;;;5083031;28;20036;-85
2023/08/16 01:19:56;;;;;;;1.13;0.75;;;17.40;64.80;;;;;;5082680;28;20055;-85
2023/08/16 01:22:42;;;;;;;1.42;0.77;;;17.30;64.70;;;;;;5075208;28;20150;-85
2023/08/16 01:25:18;;;;;;;4.40;0.70;;;17.30;64.70;;;;;;5074050;28;20028;-85
2023/08/16 01:27:45;;;;;;;1.88;0.80;;;17.20;64.50;;;;;;5064789;28;20036;-85
2023/08/16 01:30:12;;;;;;;1.65;1.00;;;17.20;64.50;;;;;;5082419;28;20040;-85
2023/08/16 01:32:38;;;;;;;1.15;0.90;;;17.20;64.60;;;;;;5085221;28;20104;-85
2023/08/16 01:35:04;;;;;;;0.80;0.70;;;17.10;64.50;;;;;;5085079;28;20600;-84
2023/08/16 01:37:31;;;;;;;1.17;0.82;;;17.10;64.60;;;;;;5072372;28;20064;-85
2023/08/16 01:40:01;;;;;;;3.22;0.70;;;17.10;64.70;;;;;;5061998;28;20028;-85
2023/08/16 01:42:31;;;;;;;2.25;0.90;;;17.00;64.60;;;;;;5087874;28;20477;-85
2023/08/16 01:44:59;;;;;;;0.75;0.70;;;17.00;64.60;;;;;;5077272;28;20481;-85
2023/08/16 01:47:27;;;;;;;1.20;0.93;;;17.00;64.70;;;;;;5090144;28;20023;-85
2023/08/16 01:49:55;;;;;;;1.80;1.38;;;16.90;64.60;;;;;;5068271;28;20138;-86
2023/08/16 01:52:22;;;;;;;1.40;0.80;;;16.90;64.70;;;;;;5067735;28;20028;-86
2023/08/16 01:54:48;;;;;;;0.98;0.85;;;16.90;64.70;;;;;;5066323;28;20024;-85
2023/08/16 01:57:13;;;;;;;1.17;0.73;;;16.80;64.60;;;;;;5078733;28;20868;-85
2023/08/16 01:59:39;;;;;;;0.70;0.70;;;16.80;64.70;;;;;;5076537;28;20039;-85
2023/08/16 02:02:06;;;;;;;0.95;0.63;;;16.80;64.70;;;;;;5074264;28;20028;-85
2023/08/16 02:04:32;;;;;;;0.90;0.63;;;16.80;64.80;;;;;;5078649;28;20126;-85
2023/08/16 02:06:58;;;;;;;1.75;0.57;;;16.70;64.70;;;;;;5084815;28;20066;-86
2023/08/16 02:09:25;;;;;;;1.10;0.90;;;16.70;64.70;;;;;;5078364;28;20115;-86
2023/08/16 02:11:51;;;;;;;2.33;0.70;;;16.70;64.80;;;;;;5098152;27;20050;-85
2023/08/16 02:14:17;;;;;;;0.93;0.60;;;16.70;65.30;;;;;;5077824;28;20028;-85
2023/08/16 02:16:43;;;;;;;0.85;0.55;;;16.70;64.80;;;;;;5058878;28;20709;-85
2023/08/16 02:19:09;;;;;;;1.15;0.60;;;16.60;64.70;;;;;;5077242;28;20040;-85
2023/08/16 02:21:37;;;;;;;2.20;0.50;;;16.60;64.80;;;;;;5082822;28;20031;-85
2023/08/16 02:24:03;;;;;;;1.65;0.80;;;16.50;64.70;;;;;;5069172;28;20579;-85
2023/08/16 02:26:29;;;;;;;1.02;0.80;;;16.50;64.70;;;;;;5084421;28;20111;-85
2023/08/16 02:28:56;;;;;;;0.60;0.60;;;16.50;65.30;;;;;;5071444;28;20060;-85
2023/08/16 02:31:23;;;;;;;2.00;0.82;;;16.50;64.80;;;;;;5081450;28;20107;-86
2023/08/16 02:33:50;;;;;;;5.40;0.88;;;16.40;64.70;;;;;;5084753;28;20059;-85
2023/08/16 02:36:16;;;;;;;1.95;0.80;;;16.40;64.80;;;;;;5075460;28;20119;-84
2023/08/16 02:38:41;;;;;;;3.53;0.80;;;16.40;64.80;;;;;;5077662;28;20632;-85
2023/08/16 02:41:07;;;;;;;1.58;0.80;;;16.40;64.90;;;;;;5071116;28;20271;-86
2023/08/16 02:43:33;;;;;;;2.20;0.70;;;16.40;64.90;;;;;;5083837;28;20127;-86
2023/08/16 02:45:59;;;;;;;1.05;0.90;;;16.40;65.00;;;;;;5075709;28;20042;-84
2023/08/16 02:48:25;;;;;;;1.52;0.90;;;16.30;64.80;;;;;;5076766;28;20017;-84
2023/08/16 02:50:51;;;;;;;0.75;0.70;;;16.30;64.90;;;;;;5101032;28;20035;-85
2023/08/16 02:53:17;;;;;;;1.63;0.98;;;16.20;64.80;;;;;;5099382;28;20016;-84
2023/08/16 02:55:43;;;;;;;0.80;0.63;;;16.20;64.80;;;;;;5104575;28;20031;-85
2023/08/16 02:58:08;;;;;;;2.75;0.88;;;16.20;64.90;;;;;;5076852;28;20267;-85
2023/08/16 03:00:35;;;;;;;1.25;0.82;;;16.20;64.90;;;;;;5081316;28;20028;-84
2023/08/16 03:03:01;;;;;;;1.35;0.80;;;16.10;64.80;;;;;;5083555;28;20484;-84
2023/08/16 03:05:27;;;;;;;0.70;0.70;;;16.10;64.80;;;;;;5076129;28;20493;-84
2023/08/16 03:07:53;;;;;;;1.48;1.00;;;16.20;65.00;;;;;;5078173;28;20024;-84
2023/08/16 03:10:19;;;;;;;1.27;0.90;;;16.10;64.90;;;;;;5064426;28;20115;-84
2023/08/16 03:12:45;;;;;;;1.25;1.00;;;16.10;64.90;;;;;;5074555;28;20197;-84
2023/08/16 03:15:11;;;;;;;3.10;1.10;;;16.10;64.90;;;;;;5079026;28;20555;-84
2023/08/16 03:17:37;;;;;;;1.92;1.00;;;16.00;64.80;;;;;;5075263;28;20040;-85
2023/08/16 03:20:07;;;;;;;1.40;1.20;;;16.00;64.80;;;;;;5072928;28;20036;-85
2023/08/16 03:22:33;;;;;;;1.50;1.05;;;16.00;64.90;;;;;;5069899;28;20494;-86
2023/08/16 03:24:59;;;;;;;1.08;1.02;;;16.00;65.00;;;;;;5060050;28;20299;-84
2023/08/16 03:27:25;;;;;;;1.73;0.95;;;15.90;64.80;;;;;;5070838;28;20228;-85
2023/08/16 03:29:52;;;;;;;1.67;0.93;;;16.00;65.00;;;;;;5087142;28;20488;-85
2023/08/16 03:32:18;;;;;;;1.70;1.10;;;15.90;64.80;;;;;;5072434;28;20026;-85
2023/08/16 03:34:45;;;;;;;1.52;1.42;;;15.90;64.90;;;;;;5078767;28;20063;-85
2023/08/16 03:37:11;;;;;;;2.00;0.80;;;15.90;65.00;;;;;;5070017;28;20711;-85
2023/08/16 03:39:37;;;;;;;1.08;0.95;;;15.80;64.80;;;;;;5074622;28;20039;-85
2023/08/16 03:42:03;;;;;;;1.23;0.90;;;15.80;64.90;;;;;;5085006;28;20123;-85
2023/08/16 03:44:29;;;;;;;1.95;1.00;;;15.80;65.00;;;;;;5067400;28;20082;-85
2023/08/16 03:49:51;;;;;;;1.40;1.05;;;15.70;64.80;;;;;;4345349;26;20132;-71
2023/08/16 03:52:18;;;;;;;2.35;1.73;;;15.70;64.80;;;;;;4993125;28;20029;-72
2023/08/16 03:55:05;;;;;;;1.92;0.82;;;15.60;64.70;;;;;;5014869;28;20117;-70
2023/08/16 03:57:30;;;;;;;1.10;1.00;;;15.60;64.70;;;;;;5013001;28;20413;-71
2023/08/16 03:59:57;;;;;;;1.30;1.20;;;15.60;64.80;;;;;;5035702;28;20022;-71
2023/08/16 04:02:23;;;;;;;1.52;1.08;;;15.60;64.90;;;;;;5014427;28;20560;-73
2023/08/16 04:04:53;;;;;;;1.60;1.20;;;15.60;64.90;;;;;;5016723;28;20032;-72
2023/08/16 04:07:19;;;;;;;0.93;0.90;;;15.50;65.40;;;;;;5021438;28;20033;-72
2023/08/16 04:09:45;;;;;;;1.30;1.13;;;15.50;64.90;;;;;;5014446;28;20053;-73
2023/08/16 04:12:11;;;;;;;1.38;1.15;;;15.50;64.90;;;;;;5019152;28;20027;-72
2023/08/16 04:14:37;;;;;;;2.25;1.00;;;15.50;65.00;;;;;;5016204;28;20501;-73
2023/08/16 04:17:03;;;;;;;3.95;1.95;;;15.50;65.00;;;;;;5011711;28;20046;-71
2023/08/16 04:19:31;;;;;;;1.40;1.30;;;15.40;64.90;;;;;;5021693;28;20143;-73
2023/08/16 04:21:57;;;;;;;1.63;1.20;;;15.40;64.90;;;;;;5023527;28;20044;-72
2023/08/16 04:24:23;;;;;;;1.50;1.00;;;15.40;64.90;;;;;;5017904;28;20100;-73
2023/08/16 04:26:49;;;;;;;2.17;1.30;;;15.40;64.90;;;;;;5022497;28;20576;-72
2023/08/16 04:29:15;;;;;;;2.25;0.98;;;15.40;65.10;;;;;;5014372;28;20145;-74
2023/08/16 04:31:41;;;;;;;2.25;1.17;;;15.40;65.00;;;;;;5016054;28;20120;-71
2023/08/16 04:34:07;;;;;;;1.38;1.08;;;15.30;64.80;;;;;;5018688;28;20026;-73
2023/08/16 04:36:33;;;;;;;0.85;0.85;;;15.30;64.80;;;;;;5012814;28;20045;-72
2023/08/16 04:38:59;;;;;;;1.00;0.93;;;15.20;64.60;;;;;;5018051;28;20112;-72
2023/08/16 04:41:26;;;;;;;1.20;1.10;;;15.20;64.70;;;;;;5011753;28;20109;-72
2023/08/16 04:43:52;;;;;;;1.55;0.95;;;15.20;64.70;;;;;;5017107;28;20121;-72
2023/08/16 04:46:18;;;;;;;2.40;0.85;;;15.20;65.00;;;;;;5014311;28;20045;-72
2023/08/16 04:48:45;;;;;;;1.08;0.82;;;15.20;64.80;;;;;;5011396;28;20393;-72
2023/08/16 04:51:11;;;;;;;0.98;0.98;;;15.10;64.70;;;;;;5018491;28;20132;-72
2023/08/16 04:53:37;;;;;;;1.40;1.13;;;15.10;64.70;;;;;;5007743;28;20116;-72
2023/08/16 04:56:04;;;;;;;2.10;0.95;;;15.10;64.80;;;;;;5011764;28;20451;-71
2023/08/16 04:58:32;;;;;;;1.88;1.05;;;15.10;64.80;;;;;;5006237;28;20544;-71
2023/08/16 05:00:58;;;;;;;1.50;1.40;;;15.00;64.70;;;;;;5014660;28;20056;-71
2023/08/16 05:03:24;;;;;;;0.80;0.80;;;15.00;64.70;;;;;;5008615;28;20034;-71
2023/08/16 05:06:00;;;;;;;1.17;1.08;;;15.00;64.80;;;;;;5011688;28;20038;-73
2023/08/16 05:08:26;;;;;;;2.13;1.30;;;14.90;64.60;;;;;;5034304;28;20076;-73
2023/08/16 05:10:51;;;;;;;1.52;1.05;;;14.90;64.70;;;;;;5012763;28;20348;-73
2023/08/16 05:13:17;;;;;;;1.52;1.00;;;14.90;64.70;;;;;;5008827;28;20033;-72
2023/08/16 05:15:44;;;;;;;2.20;1.17;;;14.90;64.70;;;;;;5014231;28;20048;-72
2023/08/16 05:18:14;;;;;;;2.42;1.08;;;14.90;64.80;;;;;;4994540;28;20539;-71
2023/08/16 05:20:42;;;;;;;1.00;1.00;;;14.90;64.80;;;;;;5009606;28;20056;-72
2023/08/16 05:23:07;;;;;;;2.58;0.98;;;14.90;64.80;;;;;;5009116;28;20140;-72
2023/08/16 05:25:36;;;;;;;1.00;0.90;;;14.90;64.80;;;;;;5014204;28;20079;-72
2023/08/16 05:28:03;;;;;;;1.65;1.50;;;14.90;64.80;;;;;;5009440;28;20056;-71
2023/08/16 05:30:28;;;;;;;1.65;1.42;;;14.90;64.80;;;;;;5001696;28;20042;-71
2023/08/16 05:32:55;;;;;;;2.20;1.10;;;14.90;64.90;;;;;;5005782;28;20435;-72
2023/08/16 05:35:21;;;;;;;3.08;1.25;;;14.90;65.10;;;;;;5012083;28;20041;-71
2023/08/16 05:37:48;;;;;;;1.85;1.20;;;14.90;65.80;;;;;;5003297;28;20599;-71
2023/08/16 05:40:14;;;;;;;2.28;1.50;;;15.00;66.60;;;;;;5014084;28;20121;-71
2023/08/16 05:42:40;;;;;;;5.80;1.60;;;15.10;67.30;;;;;;5008164;28;20379;-72
2023/08/16 05:45:07;;;;;;;4.95;1.52;;;15.20;67.90;;;;;;5013147;28;20794;-70
2023/08/16 05:47:34;;;;;;;7.07;1.80;;;15.30;68.40;;;;;;5006503;28;20118;-72
2023/08/16 05:50:01;;;;;;;2.58;1.50;;;15.40;68.80;;;;;;5007981;28;20048;-72
2023/08/16 05:52:27;;;;;;;2.10;1.50;;;15.50;69.20;;;;;;5008752;28;20036;-72
2023/08/16 05:54:53;;;;;;;4.15;2.30;;;15.60;69.50;;;;;;5002037;28;20056;-71
2023/08/16 05:57:19;;;;;;;3.53;2.75;;;15.70;69.70;;;;;;5008196;28;20065;-71
2023/08/16 05:59:45;;;;;;;4.05;2.10;;;15.80;70.10;;;;;;5010727;28;20061;-71
2023/08/16 06:02:11;;;;;;;3.58;1.92;;;15.80;70.30;;;;;;5005924;28;20057;-72
2023/08/16 06:04:38;;;;;;;2.80;1.60;;;15.90;70.70;;;;;;5011468;28;20033;-69
2023/08/16 06:07:04;;;;;;;6.25;2.78;;;16.00;71.00;;;;;;5001842;28;20048;-70
2023/08/16 06:09:31;;;;;;;4.95;1.95;;;16.10;71.30;;;;;;5004864;28;20042;-70
2023/08/16 06:11:57;;;;;;;4.50;2.10;;;16.10;71.30;;;;;;5004229;28;20041;-69
2023/08/16 06:14:24;;;;;;;2.70;1.95;;;16.20;71.60;;;;;;5003949;28;20025;-70
2023/08/16 06:16:50;;;;;;;2.08;1.80;;;16.30;71.90;;;;;;5005188;28;20062;-69
2023/08/16 06:19:16;;;;;;;3.72;2.10;;;16.40;72.10;;;;;;5001246;28;20913;-70
2023/08/16 06:21:42;;;;;;;2.28;1.75;;;16.50;72.30;;;;;;5015686;28;20037;-72
2023/08/16 06:24:08;;;;;;;2.65;1.67;;;16.60;72.30;;;;;;5008607;28;20117;-70
2023/08/16 06:26:34;;;;;;;3.63;2.10;;;16.70;72.30;;;;;;5009781;28;20267;-69
2023/08/16 06:29:00;;;;;;;2.72;1.83;;;16.80;72.20;;;;;;5010121;28;20025;-70
2023/08/16 06:31:27;;;;;;;2.72;1.73;;;16.90;72.10;;;;;;5014311;28;20044;-70
2023/08/16 06:33:52;;;;;;;3.03;1.80;;;17.00;72.00;;;;;;5011126;28;20049;-70
2023/08/16 06:36:19;;;;;;;1.98;1.50;;;17.20;72.10;;;;;;5000034;28;20108;-70
2023/08/16 06:38:45;;;;;;;3.10;1.77;;;17.30;71.90;;;;;;5004715;28;20025;-70
2023/08/16 06:41:12;;;;;;;3.75;1.80;;;17.50;71.90;;;;;;5007821;28;20037;-70
2023/08/16 06:43:39;;;;;;;2.33;1.67;;;17.60;71.70;;;;;;5004352;28;20041;-70
2023/08/16 06:46:05;;;;;;;1.60;1.50;;;17.80;71.60;;;;;;5002943;28;20502;-69
2023/08/16 06:48:31;;;;;;;2.58;1.90;;;18.10;71.60;;;;;;5007672;28;20029;-69
2023/08/16 06:50:57;;;;;;;1.88;1.30;;;18.30;71.40;;;;;;5007012;28;20275;-70
2023/08/16 06:53:25;;;;;;;2.03;1.80;;;18.70;71.40;;;;;;5006603;28;20045;-69
2023/08/16 06:55:56;;;;;;;2.50;2.00;;;18.90;70.80;;;;;;5010165;28;20051;-69
2023/08/16 06:58:22;;;;;;;2.33;2.10;;;19.30;70.60;;;;;;5010801;28;20141;-70
2023/08/16 07:00:49;;;;;;;2.92;2.35;;;19.70;70.30;;;;;;5011910;28;20113;-69
2023/08/16 07:03:17;;;;;;;2.75;2.20;;;20.00;69.80;;;;;;5015059;28;20103;-70
2023/08/16 07:05:43;;;;;;;3.42;2.05;;;20.50;69.60;;;;;;5007235;28;20560;-70
2023/08/16 07:08:09;;;;;;;3.67;2.60;;;20.90;69.10;;;;;;5003683;28;20034;-70
2023/08/16 07:10:35;;;;;;;2.78;2.55;;;21.40;68.70;;;;;;5008644;28;20056;-70
2023/08/16 07:13:02;;;;;;;3.35;2.67;;;21.90;68.10;;;;;;5015885;28;20038;-70
2023/08/16 07:15:29;;;;;;;2.97;2.25;;;22.40;67.50;;;;;;5004235;28;20132;-70
2023/08/16 07:17:55;;;;;;;5.50;2.47;;;23.00;66.90;;;;;;5010374;28;20085;-69
2023/08/16 07:20:21;;;;;;;3.47;2.78;;;23.50;66.20;;;;;;5004710;28;20030;-70
2023/08/16 07:22:47;;;;;;;3.80;2.50;;;23.90;65.40;;;;;;5011662;28;20060;-70
2023/08/16 07:25:13;;;;;;;5.32;3.13;;;24.30;64.70;;;;;;5015888;28;20503;-71
2023/08/16 07:27:39;;;;;;;3.78;2.30;;;24.60;64.20;;;;;;5005125;28;20041;-69
2023/08/16 07:30:06;;;;;;;3.55;2.35;;;24.90;63.60;;;;;;5006942;28;20037;-70
2023/08/16 07:32:31;;;;;;;2.25;2.05;;;25.10;63.10;;;;;;5009267;28;20036;-70
2023/08/16 07:34:58;;;;;;;6.90;2.80;;;25.30;62.80;;;;;;5008015;28;20061;-70
2023/08/16 07:37:31;;;;;;;3.17;2.33;;;25.50;62.30;;;;;;5005622;28;20069;-71
2023/08/16 07:39:59;;;;;;;2.70;1.88;;;25.80;61.80;;;;;;5004905;28;20104;-69
2023/08/16 07:42:25;;;;;;;5.70;2.53;;;26.00;61.30;;;;;;5005797;28;20410;-70
2023/08/16 07:44:52;;;;;;;1.85;1.65;;;26.20;60.90;;;;;;5010322;28;20050;-70
2023/08/16 07:47:18;;;;;;;1.67;1.58;;;26.20;60.60;;;;;;5011411;28;20067;-70
2023/08/16 07:49:44;;;;;;;4.95;2.35;;;26.20;60.30;;;;;;4999408;28;20058;-70
2023/08/16 07:52:11;;;;;;;3.30;1.88;;;26.20;60.10;;;;;;5011460;28;20052;-70
2023/08/16 07:54:37;;;;;;;2.45;1.60;;;26.10;60.00;;;;;;5005660;28;20510;-70
2023/08/16 07:57:04;;;;;;;2.03;1.70;;;26.00;59.90;;;;;;5013654;28;20588;-70
2023/08/16 07:59:30;;;;;;;3.22;1.67;;;25.90;60.00;;;;;;5002151;28;20073;-70
2023/08/16 08:01:56;;;;;;;2.60;1.75;;;25.70;60.00;;;;;;5015456;28;20398;-70
2023/08/16 08:04:22;;;;;;;2.33;1.95;;;25.50;60.30;;;;;;5007848;28;20041;-70
2023/08/16 08:06:49;;;;;;;2.60;2.00;;;25.30;60.50;;;;;;5009639;28;20092;-70
2023/08/16 08:09:15;;;;;;;2.13;1.92;;;25.10;60.70;;;;;;5000743;28;20481;-70
2023/08/16 08:11:41;;;;;;;3.55;1.90;;;25.00;60.70;;;;;;5002394;28;20033;-70
2023/08/16 08:14:08;;;;;;;3.08;1.83;;;24.90;60.60;;;;;;5012717;28;20034;-70
2023/08/16 08:16:33;;;;;;;2.22;1.77;;;24.90;60.50;;;;;;5016364;28;20227;-70
2023/08/16 08:18:59;;;;;;;3.83;1.70;;;24.80;60.30;;;;;;5004457;28;20047;-70
2023/08/16 08:21:26;;;;;;;2.92;1.80;;;24.60;60.20;;;;;;5011735;28;20056;-70
2023/08/16 08:23:52;;;;;;;2.80;1.65;;;24.50;60.30;;;;;;5009059;28;20189;-70
2023/08/16 08:26:18;;;;;;;2.75;1.63;;;24.30;60.30;;;;;;5011403;28;20044;-71
2023/08/16 08:28:44;;;;;;;4.43;1.95;;;24.10;60.20;;;;;;5007184;28;20041;-70
2023/08/16 08:31:11;;;;;;;2.45;1.77;;;24.00;60.30;;;;;;5005038;28;20034;-70
2023/08/16 08:33:38;;;;;;;3.28;1.60;;;23.80;60.20;;;;;;5003432;28;20056;-71
2023/08/16 08:36:06;;;;;;;2.28;1.40;;;23.70;60.20;;;;;;5008271;28;20033;-71
2023/08/16 08:38:32;;;;;;;3.15;2.03;;;23.60;60.90;;;;;;5004376;28;20182;-71
2023/08/16 08:41:01;;;;;;;2.15;1.65;;;23.50;60.30;;;;;;5011688;28;20026;-71
2023/08/16 08:43:35;;;;;;;2.22;1.70;;;23.40;60.30;;;;;;5016522;28;20064;-71
2023/08/16 08:46:03;;;;;;;2.63;1.60;;;23.30;60.30;;;;;;5010527;28;20359;-71
2023/08/16 08:48:30;;;;;;;2.42;1.70;;;23.20;60.30;;;;;;5007999;28;20147;-71
2023/08/16 08:50:57;;;;;;;1.98;1.38;;;23.20;60.50;;;;;;5008051;28;20429;-70
2023/08/16 08:53:24;;;;;;;1.98;1.60;;;23.10;60.40;;;;;;5016756;28;20034;-70
2023/08/16 08:55:52;;;;;;;2.42;1.70;;;23.10;60.50;;;;;;5012063;28;20127;-71
2023/08/16 08:58:19;;;;;;;2.95;1.95;;;23.10;60.50;;;;;;5010801;28;20148;-70
2023/08/16 09:00:46;;;;;;;3.10;1.55;;;23.10;60.50;;;;;;5013729;28;20083;-70
2023/08/16 09:03:15;;;;;;;3.60;2.17;;;23.10;60.60;;;;;;5016941;28;20618;-70
2023/08/16 09:05:44;;;;;;;1.73;1.30;;;23.10;60.60;;;;;;5018284;28;20053;-71
2023/08/16 09:08:13;;;;;;;3.58;1.73;;;23.10;60.50;;;;;;5004821;28;20120;-70
2023/08/16 09:10:39;;;;;;;1.95;1.45;;;23.10;60.50;;;;;;5005778;28;20058;-70
2023/08/16 09:13:08;;;;;;;2.75;1.60;;;23.20;60.60;;;;;;5007498;28;20116;-71
2023/08/16 09:15:34;;;;;;;3.90;1.55;;;23.20;60.60;;;;;;5008105;28;20497;-70
2023/08/16 09:18:13;;;;;;;2.20;1.25;;;23.20;60.40;;;;;;5014103;28;20116;-70
2023/08/16 09:20:42;;;;;;;1.98;1.38;;;23.30;60.50;;;;;;5008123;28;20168;-70
2023/08/16 09:23:15;;;;;;;30.52;6.80;;;23.30;60.50;;;;;;5013000;28;20207;-70
2023/08/16 09:25:42;;;;;;;36.58;7.78;;;23.40;60.60;;;;;;5013019;28;20591;-71
2023/08/16 09:28:12;;;;;;;39.83;10.27;;;23.50;60.60;;;;;;5010605;28;20041;-71
2023/08/16 09:30:38;;;;;;;33.83;8.10;;;23.50;60.50;;;;;;5011861;28;20567;-69
2023/08/16 09:33:05;;;;;;;28.30;7.47;;;23.60;60.50;;;;;;5002815;28;20375;-71
2023/08/16 09:35:58;;;;;;;28.85;8.23;;;23.70;60.50;;;;;;5014123;28;20474;-70
2023/08/16 09:38:24;;;;;;;24.95;7.82;;;23.80;60.50;;;;;;5006950;28;20049;-70
2023/08/16 09:40:50;;;;;;;29.98;9.35;;;23.80;60.40;;;;;;5010911;28;20067;-70
2023/08/16 09:43:20;;;;;;;25.30;8.77;;;23.90;60.50;;;;;;5012932;28;20041;-71
2023/08/16 09:45:53;;;;;;;15.40;6.35;;;24.00;60.60;;;;;;5013923;28;20096;-70
2023/08/16 09:48:22;;;;;;;26.77;10.48;;;24.10;60.60;;;;;;5009049;28;20021;-71
2023/08/16 09:50:49;;;;;;;26.95;9.27;;;24.10;60.50;;;;;;5015135;28;20561;-70
2023/08/16 09:53:15;;;;;;;25.90;9.27;;;24.20;60.60;;;;;;5011959;28;20037;-71
2023/08/16 09:55:43;;;;;;;22.08;7.55;;;24.30;60.60;;;;;;5010238;28;20029;-70
2023/08/16 09:58:11;;;;;;;20.67;7.40;;;24.40;60.60;;;;;;5017362;28;20124;-70
2023/08/16 10:00:37;;;;;;;20.30;7.88;;;24.40;60.50;;;;;;5020108;28;20026;-70
2023/08/16 10:03:04;;;;;;;25.20;7.72;;;24.50;61.00;;;;;;5016688;28;20061;-70
2023/08/16 10:05:31;;;;;;;23.25;9.52;;;24.50;60.20;;;;;;5010385;28;20042;-70
2023/08/16 10:08:01;;;;;;;33.70;11.60;;;24.60;60.30;;;;;;5016287;28;20045;-70
2023/08/16 10:10:30;;;;;;;27.15;9.80;;;24.70;60.40;;;;;;5006353;28;20033;-70
2023/08/16 10:12:59;;;;;;;24.88;8.60;;;24.80;60.50;;;;;;5009571;28;20112;-70
2023/08/16 10:15:26;;;;;;;31.25;12.00;;;24.80;60.30;;;;;;5012494;28;20029;-70
2023/08/16 10:17:53;;;;;;;26.33;9.57;;;24.90;60.40;;;;;;5015332;28;20464;-70
2023/08/16 10:20:24;;;;;;;28.33;10.73;;;25.00;60.40;;;;;;5014481;28;20099;-70
2023/08/16 10:23:00;;;;;;;26.20;9.23;;;25.10;60.30;;;;;;5013913;28;20069;-70
2023/08/16 10:25:33;;;;;;;33.42;10.82;;;25.10;60.20;;;;;;5008366;28;20038;-71
2023/08/16 10:28:02;;;;;;;21.05;9.25;;;25.20;60.20;;;;;;5005529;28;20038;-70
2023/08/16 10:30:29;;;;;;;15.82;6.50;;;25.30;60.10;;;;;;5004891;28;20398;-71
2023/08/16 10:33:14;;;;;;;20.83;7.88;;;25.30;60.00;;;;;;5012223;28;20033;-71
2023/08/16 10:35:41;;;;;;;15.68;6.90;;;25.40;59.90;;;;;;5017168;28;20037;-70
2023/08/16 10:38:07;;;;;;;20.58;7.15;;;25.50;59.80;;;;;;5010003;28;20283;-70
2023/08/16 10:40:34;;;;;;;15.82;6.15;;;25.50;59.70;;;;;;5005440;28;20041;-70
2023/08/16 10:43:05;;;;;;;12.60;5.80;;;25.60;59.50;;;;;;5002727;28;20033;-70
2023/08/16 10:45:35;;;;;;;15.40;5.63;;;25.60;59.20;;;;;;5002831;28;20413;-70
2023/08/16 10:48:11;;;;;;;13.40;5.97;;;25.70;59.10;;;;;;5005538;28;20136;-70
2023/08/16 10:50:37;;;;;;;12.80;5.55;;;25.80;59.50;;;;;;5012010;28;20561;-70
2023/08/16 10:53:07;;;;;;;12.05;5.55;;;25.90;58.90;;;;;;5013383;28;20037;-70
2023/08/16 10:55:33;;;;;;;14.02;5.68;;;26.00;58.70;;;;;;5025155;28;20064;-72
2023/08/16 10:57:59;;;;;;;15.70;6.70;;;26.10;58.70;;;;;;5019802;28;20571;-71
2023/08/16 11:00:35;;;;;;;17.08;6.53;;;26.20;58.80;;;;;;5018899;28;20037;-72
2023/08/16 11:03:04;;;;;;;14.20;6.70;;;26.20;58.80;;;;;;5014967;28;20160;-72
2023/08/16 11:05:34;;;;;;;9.80;5.80;;;26.30;58.90;;;;;;5010254;28;20264;-71
2023/08/16 11:08:04;;;;;;;11.38;5.13;;;26.40;58.90;;;;;;5011642;28;20072;-71
2023/08/16 11:10:34;;;;;;;12.23;5.55;;;26.50;58.90;;;;;;5000603;28;20128;-72
2023/08/16 11:13:02;;;;;;;9.95;5.10;;;26.50;58.80;;;;;;5019779;28;20344;-72
2023/08/16 11:15:28;;;;;;;13.10;5.60;;;26.60;58.80;;;;;;5016550;28;20135;-73
2023/08/16 11:17:55;;;;;;;10.32;5.45;;;26.70;58.70;;;;;;5021113;28;20074;-74
2023/08/16 11:20:24;;;;;;;9.35;4.78;;;26.80;59.40;;;;;;5005442;28;20056;-72
2023/08/16 11:22:52;;;;;;;10.43;5.18;;;26.80;58.80;;;;;;5009816;28;20111;-72
2023/08/16 11:25:18;;;;;;;8.70;4.25;;;26.90;58.70;;;;;;5005913;28;20043;-72
2023/08/16 11:27:44;;;;;;;9.60;4.22;;;27.00;58.60;;;;;;5010017;28;20474;-72
2023/08/16 11:30:13;;;;;;;8.35;4.63;;;27.00;58.50;;;;;;5005896;28;20041;-71
2023/08/16 11:32:40;;;;;;;6.75;3.92;;;27.10;58.50;;;;;;5003175;28;20399;-72
2023/08/16 11:35:08;;;;;;;9.32;4.07;;;27.10;58.30;;;;;;5008457;28;20025;-72
2023/08/16 11:37:35;;;;;;;6.88;3.45;;;27.20;58.40;;;;;;5011125;28;20049;-72
2023/08/16 11:40:04;;;;;;;9.80;4.65;;;27.10;58.20;;;;;;5008416;28;20044;-72
2023/08/16 11:42:31;;;;;;;6.70;3.53;;;27.10;58.30;;;;;;5010049;28;20037;-72
2023/08/16 11:44:57;;;;;;;6.93;3.92;;;27.10;58.30;;;;;;5008021;28;20120;-72
2023/08/16 11:47:23;;;;;;;6.85;3.50;;;27.10;58.30;;;;;;5014681;28;20095;-72
2023/08/16 11:49:50;;;;;;;6.88;3.63;;;27.20;58.20;;;;;;5008249;28;20062;-72
2023/08/16 11:52:21;;;;;;;6.22;3.38;;;27.10;58.10;;;;;;5012989;28;20492;-72
2023/08/16 11:54:47;;;;;;;6.88;3.13;;;27.10;58.20;;;;;;5009433;28;20508;-72
2023/08/16 11:57:18;;;;;;;5.38;3.25;;;27.10;58.20;;;;;;5014980;28;20793;-71
2023/08/16 11:59:55;;;;;;;6.35;3.55;;;27.20;58.00;;;;;;5013950;28;20033;-71
2023/08/16 12:02:23;;;;;;;6.55;2.88;;;27.30;57.80;;;;;;5012250;28;20026;-71
2023/08/16 12:04:49;;;;;;;6.10;3.08;;;27.30;57.90;;;;;;5009611;28;20519;-72
2023/08/16 12:07:16;;;;;;;8.05;3.08;;;27.20;57.90;;;;;;5011488;28;21555;-71
2023/08/16 12:09:42;;;;;;;10.07;3.97;;;27.20;58.00;;;;;;5006209;28;20037;-71
2023/08/16 12:12:10;;;;;;;5.32;3.20;;;27.10;58.10;;;;;;5013244;28;20029;-73
2023/08/16 12:14:36;;;;;;;4.75;2.72;;;27.10;58.10;;;;;;5011153;28;20124;-72
2023/08/16 12:17:02;;;;;;;5.07;2.63;;;27.20;57.90;;;;;;5015403;28;20120;-72
2023/08/16 12:19:28;;;;;;;5.15;2.33;;;27.40;57.70;;;;;;5011584;28;20029;-72
2023/08/16 12:21:54;;;;;;;3.22;1.95;;;27.50;57.40;;;;;;5015241;28;20379;-72
2023/08/16 12:24:20;;;;;;;3.72;2.38;;;27.60;57.80;;;;;;5016016;28;20473;-71
2023/08/16 12:26:46;;;;;;;5.05;2.25;;;27.80;57.10;;;;;;5014833;28;20038;-71
2023/08/16 12:29:12;;;;;;;3.88;2.13;;;27.80;56.80;;;;;;5006168;28;20049;-72
2023/08/16 12:31:38;;;;;;;5.15;2.20;;;28.00;56.80;;;;;;5011695;28;20161;-72
2023/08/16 12:34:06;;;;;;;3.63;2.10;;;28.00;56.60;;;;;;5005431;28;20037;-71
2023/08/16 12:36:33;;;;;;;3.35;1.80;;;28.00;56.40;;;;;;5010520;28;20030;-71
2023/08/16 12:38:59;;;;;;;3.42;2.00;;;28.10;56.40;;;;;;5000427;28;20124;-72
2023/08/16 12:41:24;;;;;;;3.90;2.03;;;28.10;56.30;;;;;;5007194;28;20037;-71
2023/08/16 12:43:53;;;;;;;3.80;1.80;;;28.00;56.30;;;;;;5010115;28;20038;-71
2023/08/16 12:46:19;;;;;;;5.10;2.00;;;27.90;56.40;;;;;;5015067;28;20064;-72
2023/08/16 12:48:48;;;;;;;3.45;1.65;;;27.90;56.50;;;;;;5011016;28;20079;-72